• Join FlightAware (Why Join?)
  • Login
  • US Flag 
10:32AM EDT


 

Airport Tracker/Info


-or-


 

Live Flight TrackerFlight Track Log ✈ ASQ4252 ✈ 27-Jul-2013 ✈ KMSP - KEWR

Flight Track Log - Related Links

Times and Time Zones

All times are in EDT time to prevent confusion due to time zone crossing. See the ASQ4252 flight status page for this flight to view local times or setup timezone preferences in your user account.

Time Position Orientation Groundspeed Altitude Reporting Facility
EDT Latitude Longitude Course Direction KTS MPH feet Rate Location/Type
12:47PM 44.8833 -93.3000 120° Southeast 220 253 3,500  Level Minneapolis TRACON
12:48PM 44.8483 -93.3961 243° Southwest 262 302 6,300 1,680 Climbing Minneapolis Center
12:49PM 44.8244 -92.7699 141° Southeast  Level Estimated
12:49PM 44.7803 -93.4444 207° Southwest 275 316 7,200  Level Minneapolis Center
12:50PM 44.8049 -92.6195 141° Southeast  Level Estimated
12:50PM 44.7039 -93.4597 188° South 299 344 9,400  Level Minneapolis Center
12:51PM 44.6984 -92.6488 191° South  Level FlightAware Approximate
12:51PM 44.6433 -93.3450 127° Southeast 316 364 11,900  Level Minneapolis Center
12:52PM 44.6795 -92.4985 120° Southeast  Level Estimated
12:52PM 44.6047 -93.2314 115° Southeast 329 379 13,900  Level Minneapolis Center
12:53PM 44.5639 -93.1083 115° Southeast 352 405 14,900 720 Climbing Minneapolis Center
12:54PM 44.5178 -92.9703 115° Southeast 393 452 15,500 720 Climbing Minneapolis Center
12:55PM 44.4567 -92.7886 115° Southeast 433 498 16,400 960 Climbing Minneapolis Center
12:56PM 44.4039 -92.6336 115° Southeast 443 510 17,500 1,020 Climbing Minneapolis Center
12:57PM 44.3497 -92.4792 116° Southeast 444 511 18,600 960 Climbing Minneapolis Center
12:58PM 44.2883 -92.3278 119° Southeast 449 517 19,500 900 Climbing Minneapolis Center
12:59PM 44.2219 -92.1758 121° Southeast 458 527 20,500 1,080 Climbing Minneapolis Center
01:00PM 44.1419 -91.9936 121° Southeast 460 529 21,800 1,080 Climbing Minneapolis Center
01:01PM 44.0764 -91.8439 121° Southeast 458 527 22,900 960 Climbing Minneapolis Center
01:02PM 44.0106 -91.6925 121° Southeast 458 527 23,900 960 Climbing Minneapolis Center
01:04PM 43.9358 -91.5256 122° Southeast 456 525 24,900 960 Climbing Minneapolis Center
01:05PM 43.8617 -91.3839 126° Southeast 458 527 25,900 960 Climbing Minneapolis Center
01:06PM 43.7789 -91.2503 131° Southeast 460 529 26,900 960 Climbing Minneapolis Center
01:07PM 43.6969 -91.1169 130° Southeast 458 527 27,900 960 Climbing Minneapolis Center
01:08PM 43.6169 -90.9861 130° Southeast 453 521 28,900 1,020 Climbing Minneapolis Center
01:09PM 43.5211 -90.8303 130° Southeast 447 514 30,100 1,020 Climbing Minneapolis Center
01:10PM 43.4397 -90.6994 131° Southeast 450 518 31,100 960 Climbing Minneapolis Center
01:11PM 43.3581 -90.5672 130° Southeast 453 521 32,100 960 Climbing Minneapolis Center
01:12PM 43.2750 -90.4369 131° Southeast 454 522 33,100 900 Climbing Minneapolis Center
01:13PM 43.1933 -90.3072 131° Southeast 454 522 34,000 900 Climbing Minneapolis Center
01:14PM 43.1011 -90.1594 130° Southeast 444 511 35,000 480 Climbing Minneapolis Center
01:15PM 43.0194 -90.0297 131° Southeast 448 516 35,000  Level Minneapolis Center
01:16PM 42.9425 -89.8831 126° Southeast 469 540 35,000  Level Minneapolis Center
01:17PM 42.8558 -89.7025 123° Southeast 486 559 35,000  Level Chicago Center
01:18PM 42.7672 -89.5242 124° Southeast 488 562 35,000  Level Chicago Center
01:19PM 42.6936 -89.3731 123° Southeast 481 554 35,000  Level Chicago Center
01:20PM 42.6239 -89.2306 124° Southeast 459 528 35,000  Level Chicago Center
01:21PM 42.5567 -89.0956 124° Southeast 436 502 35,000  Level Chicago Center
01:22PM 42.4778 -88.9400 124° Southeast 429 494 35,000  Level Chicago Center
01:23PM 42.4108 -88.8058 124° Southeast 432 497 35,000  Level Chicago Center
01:24PM 42.3425 -88.6736 125° Southeast 431 496 35,000  Level Chicago Center
01:25PM 42.2728 -88.5369 125° Southeast 437 503 35,000  Level Chicago Center
01:26PM 42.2047 -88.4003 124° Southeast 440 506 35,000  Level Chicago Center
01:28PM 42.1353 -88.2658 125° Southeast 439 505 35,000  Level Chicago Center
01:29PM 42.0528 -88.1047 125° Southeast 437 503 35,000  Level Chicago Center
01:30PM 42.0014 -87.9572 115° Southeast 443 510 35,000  Level Chicago Center
01:31PM 41.9972 -87.7889 92° East 450 518 35,000  Level Chicago Center
01:32PM 41.9961 -87.6125 90° East 463 533 35,000  Level Chicago Center
01:33PM 41.9944 -87.4331 91° East 475 547 35,000  Level Chicago Center
01:34PM 41.9911 -87.2497 91° East 488 562 35,000  Level Chicago Center
01:35PM 41.9894 -87.0297 91° East 492 566 35,000  Level Chicago Center
01:36PM 41.9867 -86.8450 91° East 495 570 35,000  Level Chicago Center
01:37PM 41.9836 -86.6769 91° East 500 575 35,000  Level Chicago Center
01:38PM 41.9800 -86.4919 91° East 497 572 35,000  Level Chicago Center
01:39PM 41.9758 -86.2689 91° East 499 574 35,000  Level Chicago Center
01:40PM 41.9719 -86.0828 92° East 501 577 35,000  Level Chicago Center
01:41PM 41.9675 -85.8967 92° East 498 573 35,000  Level Chicago Center
01:42PM 41.9636 -85.7142 92° East 491 565 35,000  Level Chicago Center
01:43PM 41.9603 -85.5336 91° East 484 557 35,000  Level Chicago Center
01:44PM 41.9542 -85.3553 93° East 476 548 35,000  Level Chicago Center
01:45PM 41.9519 -85.1794 91° East 471 542 35,000  Level Chicago Center
01:46PM 41.9506 -84.9647 90° East 478 550 35,000  Level Chicago Center
01:47PM 41.9494 -84.7872 90° East 475 547 35,000  Level Chicago Center
01:48PM 41.9481 -84.6100 91° East 475 547 35,000  Level Chicago Center
01:49PM 41.9461 -84.4317 91° East 477 549 35,000  Level Chicago Center
01:50PM 41.9414 -84.2375 92° East 471 542 35,000  Level Cleveland Center
01:51PM 41.9403 -84.0672 90° East 471 542 35,000  Level Cleveland Center
01:52PM 41.9372 -83.8967 91° East 460 529 35,000  Level Cleveland Center
01:53PM 41.9358 -83.7208 91° East 460 529 35,000  Level Cleveland Center
01:54PM 41.9331 -83.5839 92° East 460 529 35,000  Level Cleveland Center
01:55PM 41.9339 -83.3911 90° East 465 535 35,000  Level Cleveland Center
01:56PM 41.9317 -83.2181 91° East 465 535 35,000  Level Cleveland Center
01:57PM 41.9297 -83.0253 91° East 465 535 35,000  Level Cleveland Center
01:58PM 41.9292 -82.8522 90° East 465 535 35,000  Level Cleveland Center
01:59PM 41.9261 -82.6903 91° East 467 537 35,000  Level Cleveland Center
02:00PM 41.9250 -82.5144 90° East 467 537 35,000  Level Cleveland Center
02:01PM 41.9236 -82.3414 91° East 467 537 35,000  Level Cleveland Center
02:02PM 41.9219 -82.1683 91° East 467 537 35,000  Level Cleveland Center
02:03PM 41.9181 -81.9728 91° East 461 531 35,000  Level Cleveland Center
02:04PM 41.9139 -81.7969 92° East 466 536 35,000  Level Cleveland Center
02:05PM 41.8989 -81.6264 97° East 466 536 35,000  Level Cleveland Center
02:06PM 41.8836 -81.4700 97° East 466 536 35,000  Level Cleveland Center
02:07PM 41.8703 -81.2997 96° East 466 536 35,000  Level Cleveland Center
02:08PM 41.8544 -81.1239 97° East 466 536 35,000  Level Cleveland Center
02:09PM 41.8364 -80.9483 98° East 472 543 35,000  Level Cleveland Center
02:10PM 41.8181 -80.7614 97° East 467 537 35,000  Level Cleveland Center
02:11PM 41.7994 -80.5858 98° East 467 537 35,000  Level Cleveland Center
02:12PM 41.7828 -80.4161 97° East 467 537 35,000  Level Cleveland Center
02:13PM 41.7678 -80.2436 97° East 467 537 35,000  Level Cleveland Center
02:14PM 41.7483 -80.0739 99° East 462 532 35,000  Level Cleveland Center
02:15PM 41.7286 -79.8958 98° East 467 537 35,000  Level Cleveland Center
02:16PM 41.7131 -79.7292 97° East 467 537 35,000  Level Cleveland Center
02:17PM 41.6969 -79.5597 97° East 462 532 35,000  Level Cleveland Center
02:18PM 41.6767 -79.3961 99° East 462 532 35,000  Level Cleveland Center
02:19PM 41.6603 -79.2269 97° East 457 526 35,000  Level Cleveland Center
02:20PM 41.6414 -79.0633 99° East 452 520 35,000  Level Cleveland Center
02:21PM 41.6225 -78.8944 98° East 452 520 35,000  Level Cleveland Center
02:22PM 41.6031 -78.7256 99° East 452 520 35,000  Level Cleveland Center
02:23PM 41.5814 -78.5511 99° East 463 533 35,000 -600 Level Cleveland Center
02:25PM 41.5522 -78.2864 98° East 486 559 33,500 -780 Descending New York Center
02:26PM 41.5294 -78.1175 100° East 472 543 33,000 -300 Descending New York Center
02:27PM 41.5069 -77.9406 100° East 472 543 33,000  Level New York Center
02:29PM 41.4592 -77.5836 100° East 477 549 33,000  Level New York Center
02:30PM 41.4347 -77.4261 102° East 477 549 33,000  Level New York Center
02:31PM 41.4072 -77.2464 101° East 482 555 33,000 -60 Level New York Center
02:32PM 41.3814 -77.0697 101° East 482 555 32,900 -1,320 Descending New York Center
02:33PM 41.3550 -76.8958 101° East 482 555 30,500 -2,520 Descending New York Center
02:34PM 41.3222 -76.7217 104° East 482 555 28,000 -2,520 Descending New York Center
02:35PM 41.2783 -76.5547 109° East 477 549 25,400 -3,060 Descending New York Center
02:36PM 41.2286 -76.3767 110° East 477 549 22,000 -2,880 Descending New York Center
02:37PM 41.1858 -76.2242 110° East 465 535 19,800 -2,100 Descending New York Center
02:38PM 41.1506 -76.0836 108° East 421 484 17,800 -1,920 Descending New York Center
02:39PM 41.1131 -75.9431 109° East 397 457 16,000 -2,100 Descending New York Center
02:40PM 41.0772 -75.8081 109° East 397 457 13,600 -2,160 Descending New York Center
02:41PM 41.0447 -75.6872 110° East 390 449 11,700 -1,320 Descending New York Center
02:42PM 41.0025 -75.5497 112° Southeast 377 434 11,000 -360 Descending New York Center
02:43PM 40.9681 -75.4208 109° East 377 434 11,000 -180 Level New York Center
02:44PM 40.9311 -75.2947 111° Southeast 377 434 10,700 -600 Descending New York Center
02:45PM 40.9019 -75.1883 110° East 338 389 9,900 -1,200 Descending New York Center
02:46PM 40.8781 -75.1017 110° East 289 333 8,400 -1,440 Descending New York Center
02:47PM 40.8503 -75.0039 111° Southeast 277 319 7,100 -720 Descending New York Center
02:48PM 40.8206 -74.9006 111° Southeast 277 319 7,000 -420 Descending New York Center
02:49PM 40.8344 -74.8000 80° East 269 310 6,300 -540 Descending New York Center
02:50PM 40.8603 -74.7164 68° East 269 310 6,000 -180 Descending New York Center
02:51PM 40.8950 -74.6142 66° East 269 310 6,000  Level New York Center
02:51PM 40.9167 -74.5500 66° East 279 321 6,000 -480 Level New York TRACON
02:52PM 40.9500 -74.4667 62° Northeast 267 307 5,300 -540 Descending New York TRACON
02:53PM 40.9667 -74.3833 75° East 239 275 5,000 -120 Descending New York TRACON
02:54PM 41.0000 -74.3000 62° Northeast 226 260 5,100  Climbing New York TRACON
02:55PM 41.0167 -74.2333 72° East 189 217 5,000 -300 Descending New York TRACON
02:56PM 41.0000 -74.1833 114° Southeast 190 219 4,500 -540 Descending New York TRACON
02:57PM 40.9667 -74.1333 131° Southeast 182 209 4,000 -720 Descending New York TRACON
02:58PM 40.9167 -74.1000 153° Southeast 183 211 3,100 -540 Descending New York TRACON
02:59PM 40.8667 -74.1000 180° South 185 213 3,000 -300 Descending New York TRACON
03:00PM 40.8167 -74.1000 180° South 176 203 2,600 -660 Descending New York TRACON
03:01PM 40.7833 -74.1167 201° Southwest 172 198 1,800 -840 Descending New York TRACON
03:02PM 40.7333 -74.1333 194° South 131 151 1,000 -780 Descending New York TRACON
03:03PM 40.7167 -74.1500 217° Southwest 135 155 300 -780 Descending New York TRACON